FIN479 EFHK-LGRP
Flight info
| Callsign | FIN479 |
|---|---|
| Flight time | 3h 25m |
| Altitude | 32000 |
| Route | KOIVU Y123 LARTI DCT ORTAX DCT BERIL/N0457F330 DCT TOXAR DCT LIBGA/N0449F340 DCT ROBTU/N0445F330 DCT KENIN DCT TIXIP DCT LOMOS/N0448F350 DCT WAK DCT NIKTI DCT STINO DCT MES UN139 LURUS UL995 CODIC |
| Aircraft | A321/M-SDE3FGHIRWY/LB1 |
Departure
| Time | 2026-04-26 06:37 |
|---|---|
| Airport | Helsinki Vantaa Airport (EFHK) |
Arrival
| Time | 2026-04-26 10:02 |
|---|---|
| Airport | Rhodes International Airport "Diagoras" (LGRP) |
| Time | Latitude | Longitude | Altitude | Speed | Heading |
|---|---|---|---|---|---|
| 2026-04-26 06:00 | 60.31877 | 24.96534 | 161 ft | 0 kts | 136° |
| 2026-04-26 06:00 | 60.31878 | 24.96534 | 162 ft | 0 kts | 136° |
| 2026-04-26 06:26 | 60.31888 | 24.96514 | 161 ft | 3 kts | 146° |
| 2026-04-26 06:26 | 60.31906 | 24.96495 | 161 ft | 3 kts | 166° |
| 2026-04-26 06:26 | 60.31926 | 24.96491 | 161 ft | 3 kts | 196° |
| 2026-04-26 06:26 | 60.31941 | 24.96506 | 161 ft | 1 kts | 228° |
| 2026-04-26 06:27 | 60.31941 | 24.96507 | 161 ft | 0 kts | 228° |
| 2026-04-26 06:30 | 60.31939 | 24.96502 | 161 ft | 1 kts | 228° |
| 2026-04-26 06:30 | 60.31926 | 24.96474 | 161 ft | 3 kts | 228° |
| 2026-04-26 06:30 | 60.31907 | 24.96431 | 161 ft | 5 kts | 228° |
| 2026-04-26 06:31 | 60.31883 | 24.96376 | 161 ft | 6 kts | 229° |
| 2026-04-26 06:31 | 60.31859 | 24.96304 | 161 ft | 6 kts | 247° |
| 2026-04-26 06:31 | 60.31856 | 24.96212 | 161 ft | 7 kts | 279° |
| 2026-04-26 06:31 | 60.31886 | 24.96109 | 161 ft | 9 kts | 314° |
| 2026-04-26 06:32 | 60.31924 | 24.96018 | 161 ft | 8 kts | 295° |
| 2026-04-26 06:32 | 60.31896 | 24.95888 | 161 ft | 12 kts | 228° |
| 2026-04-26 06:32 | 60.31835 | 24.95756 | 161 ft | 16 kts | 227° |
| 2026-04-26 06:32 | 60.31753 | 24.95574 | 161 ft | 18 kts | 227° |
| 2026-04-26 06:33 | 60.31668 | 24.95387 | 161 ft | 18 kts | 227° |
| 2026-04-26 06:33 | 60.31582 | 24.95197 | 161 ft | 18 kts | 227° |
| 2026-04-26 06:33 | 60.31495 | 24.95003 | 161 ft | 19 kts | 227° |
| 2026-04-26 06:33 | 60.31406 | 24.94808 | 161 ft | 19 kts | 227° |
| 2026-04-26 06:34 | 60.31315 | 24.94613 | 161 ft | 19 kts | 227° |
| 2026-04-26 06:34 | 60.31226 | 24.94411 | 161 ft | 19 kts | 227° |
| 2026-04-26 06:34 | 60.31139 | 24.94223 | 161 ft | 18 kts | 227° |
| 2026-04-26 06:34 | 60.31075 | 24.94079 | 161 ft | 13 kts | 229° |
| 2026-04-26 06:35 | 60.31038 | 24.93925 | 161 ft | 12 kts | 268° |
| 2026-04-26 06:35 | 60.31044 | 24.93855 | 161 ft | 0 kts | 288° |
| 2026-04-26 06:35 | 60.31045 | 24.93850 | 161 ft | 1 kts | 290° |
| 2026-04-26 06:35 | 60.31059 | 24.93800 | 161 ft | 8 kts | 307° |
| 2026-04-26 06:36 | 60.31102 | 24.93732 | 161 ft | 8 kts | 338° |
| 2026-04-26 06:36 | 60.31165 | 24.93738 | 161 ft | 12 kts | 21° |
| 2026-04-26 06:36 | 60.31311 | 24.94034 | 164 ft | 61 kts | 46° |
| 2026-04-26 06:36 | 60.31748 | 24.94993 | 164 ft | 122 kts | 48° |
| 2026-04-26 06:37 | 60.32436 | 24.96522 | 198 ft | 169 kts | 45° |
| 2026-04-26 06:37 | 60.33189 | 24.98366 | 844 ft | 169 kts | 41° |
| 2026-04-26 06:37 | 60.33978 | 25.00137 | 1608 ft | 173 kts | 37° |
| 2026-04-26 06:37 | 60.34846 | 25.01989 | 1898 ft | 193 kts | 38° |
| 2026-04-26 06:38 | 60.35829 | 25.04069 | 2125 ft | 216 kts | 38° |
| 2026-04-26 06:38 | 60.36880 | 25.06323 | 2641 ft | 225 kts | 39° |
| 2026-04-26 06:38 | 60.37940 | 25.08648 | 3468 ft | 224 kts | 39° |
| 2026-04-26 06:38 | 60.38958 | 25.11061 | 4218 ft | 231 kts | 50° |
| 2026-04-26 06:39 | 60.39352 | 25.14358 | 4897 ft | 261 kts | 85° |
| 2026-04-26 06:39 | 60.38873 | 25.18035 | 5570 ft | 278 kts | 102° |
| 2026-04-26 06:39 | 60.38075 | 25.21657 | 6258 ft | 285 kts | 108° |
| 2026-04-26 06:39 | 60.37160 | 25.25242 | 6943 ft | 289 kts | 110° |
| 2026-04-26 06:40 | 60.36214 | 25.28843 | 7648 ft | 291 kts | 110° |
| 2026-04-26 06:40 | 60.35165 | 25.32368 | 8317 ft | 299 kts | 123° |
| 2026-04-26 06:40 | 60.33608 | 25.35260 | 9015 ft | 309 kts | 143° |
| 2026-04-26 06:40 | 60.31651 | 25.37094 | 9707 ft | 314 kts | 164° |
| 2026-04-26 06:41 | 60.29472 | 25.37631 | 10272 ft | 321 kts | 180° |
| 2026-04-26 06:41 | 60.27163 | 25.37610 | 10404 ft | 342 kts | 185° |
| 2026-04-26 06:41 | 60.24770 | 25.36737 | 10535 ft | 359 kts | 199° |
| 2026-04-26 06:41 | 60.22437 | 25.34718 | 10699 ft | 372 kts | 213° |
| 2026-04-26 06:42 | 60.20356 | 25.31633 | 11159 ft | 374 kts | 226° |
| 2026-04-26 06:42 | 60.18441 | 25.28070 | 11782 ft | 375 kts | 225° |
| 2026-04-26 06:42 | 60.16509 | 25.24514 | 12401 ft | 378 kts | 225° |
| 2026-04-26 06:42 | 60.14555 | 25.20949 | 12997 ft | 382 kts | 226° |
| 2026-04-26 06:43 | 60.12612 | 25.17409 | 13610 ft | 382 kts | 225° |
| 2026-04-26 06:43 | 60.10636 | 25.13813 | 14183 ft | 384 kts | 224° |
| 2026-04-26 06:43 | 60.08654 | 25.10208 | 14741 ft | 386 kts | 225° |
| 2026-04-26 06:43 | 60.06653 | 25.06565 | 15274 ft | 389 kts | 225° |
| 2026-04-26 06:44 | 60.04636 | 25.02898 | 15759 ft | 393 kts | 223° |
| 2026-04-26 06:44 | 60.02614 | 24.99225 | 16374 ft | 394 kts | 224° |
| 2026-04-26 06:44 | 60.00579 | 24.95529 | 17015 ft | 394 kts | 223° |
| 2026-04-26 06:44 | 59.98544 | 24.91838 | 17532 ft | 398 kts | 223° |
| 2026-04-26 06:45 | 59.96478 | 24.88099 | 18014 ft | 402 kts | 223° |
| 2026-04-26 06:45 | 59.94404 | 24.84355 | 18513 ft | 404 kts | 223° |
| 2026-04-26 06:45 | 59.92310 | 24.80583 | 18989 ft | 406 kts | 223° |
| 2026-04-26 06:45 | 59.90210 | 24.76805 | 19419 ft | 409 kts | 222° |
| 2026-04-26 06:46 | 59.88088 | 24.72995 | 19814 ft | 412 kts | 223° |
| 2026-04-26 06:46 | 59.85841 | 24.69436 | 20304 ft | 414 kts | 216° |
| 2026-04-26 06:46 | 59.83316 | 24.66627 | 20743 ft | 417 kts | 205° |
| 2026-04-26 06:46 | 59.80574 | 24.64678 | 21122 ft | 421 kts | 195° |
| 2026-04-26 06:47 | 59.77703 | 24.63317 | 21482 ft | 425 kts | 194° |
| 2026-04-26 06:47 | 59.74816 | 24.61970 | 21819 ft | 429 kts | 194° |
| 2026-04-26 06:47 | 59.71893 | 24.60606 | 22183 ft | 432 kts | 193° |
| 2026-04-26 06:47 | 59.68961 | 24.59238 | 22555 ft | 435 kts | 194° |
| 2026-04-26 06:48 | 59.66016 | 24.57899 | 23062 ft | 434 kts | 192° |
| 2026-04-26 06:48 | 59.64051 | 24.57115 | 23276 ft | 437 kts | 191° |
| 2026-04-26 06:48 | 59.61035 | 24.56069 | 23506 ft | 441 kts | 190° |
| 2026-04-26 06:48 | 59.57981 | 24.55134 | 23697 ft | 447 kts | 190° |
| 2026-04-26 06:49 | 59.54883 | 24.54235 | 23877 ft | 453 kts | 189° |
| 2026-04-26 06:49 | 59.51756 | 24.53324 | 24199 ft | 454 kts | 190° |
| 2026-04-26 06:49 | 59.48616 | 24.52374 | 24478 ft | 456 kts | 190° |
| 2026-04-26 06:49 | 59.45480 | 24.51387 | 24817 ft | 457 kts | 191° |
| 2026-04-26 06:50 | 59.42326 | 24.50369 | 25033 ft | 461 kts | 191° |
| 2026-04-26 06:50 | 59.39143 | 24.49335 | 25272 ft | 465 kts | 191° |
| 2026-04-26 06:50 | 59.35932 | 24.48289 | 25444 ft | 469 kts | 191° |
| 2026-04-26 06:50 | 59.32708 | 24.47246 | 25753 ft | 471 kts | 191° |
| 2026-04-26 06:51 | 59.29471 | 24.46210 | 26066 ft | 471 kts | 191° |
| 2026-04-26 06:51 | 59.22950 | 24.44145 | 26527 ft | 476 kts | 191° |
| 2026-04-26 06:51 | 59.19665 | 24.43114 | 26714 ft | 480 kts | 191° |
| 2026-04-26 06:52 | 59.16361 | 24.42078 | 26987 ft | 481 kts | 190° |
| 2026-04-26 06:52 | 59.13046 | 24.41036 | 27261 ft | 483 kts | 190° |
| 2026-04-26 06:52 | 59.09765 | 24.39997 | 27567 ft | 484 kts | 191° |
| 2026-04-26 06:52 | 59.06432 | 24.38943 | 27751 ft | 487 kts | 190° |
| 2026-04-26 06:53 | 59.03081 | 24.37889 | 28001 ft | 489 kts | 191° |
| 2026-04-26 06:53 | 58.99714 | 24.36838 | 28285 ft | 490 kts | 191° |
| 2026-04-26 06:53 | 58.96352 | 24.35797 | 28592 ft | 490 kts | 191° |
| 2026-04-26 06:53 | 58.92988 | 24.34757 | 28883 ft | 490 kts | 191° |
| 2026-04-26 06:54 | 58.89617 | 24.33713 | 29186 ft | 491 kts | 191° |
| 2026-04-26 06:54 | 58.86242 | 24.32664 | 29462 ft | 491 kts | 191° |
| 2026-04-26 06:54 | 58.82870 | 24.31582 | 29731 ft | 492 kts | 192° |
| 2026-04-26 06:54 | 58.79506 | 24.30373 | 29963 ft | 492 kts | 193° |
| 2026-04-26 06:55 | 58.76148 | 24.29063 | 30204 ft | 492 kts | 194° |
| 2026-04-26 06:55 | 58.72800 | 24.27705 | 30422 ft | 492 kts | 194° |
| 2026-04-26 06:55 | 58.69453 | 24.26339 | 30613 ft | 493 kts | 194° |
| 2026-04-26 06:55 | 58.66092 | 24.24994 | 30850 ft | 493 kts | 194° |
| 2026-04-26 06:56 | 58.62734 | 24.23687 | 31078 ft | 493 kts | 193° |
| 2026-04-26 06:56 | 58.59372 | 24.22403 | 31304 ft | 493 kts | 193° |
| 2026-04-26 06:56 | 58.56010 | 24.21136 | 31551 ft | 492 kts | 193° |
| 2026-04-26 06:56 | 58.52642 | 24.19874 | 31659 ft | 492 kts | 193° |
| 2026-04-26 06:57 | 58.45930 | 24.17358 | 31689 ft | 491 kts | 193° |
| 2026-04-26 06:57 | 58.39217 | 24.14825 | 31697 ft | 492 kts | 193° |
| 2026-04-26 06:58 | 58.32498 | 24.12286 | 31707 ft | 493 kts | 193° |
| 2026-04-26 06:58 | 58.25763 | 24.09759 | 31711 ft | 493 kts | 193° |
| 2026-04-26 06:59 | 58.19032 | 24.07243 | 31728 ft | 493 kts | 193° |
| 2026-04-26 06:59 | 58.12338 | 24.04757 | 31711 ft | 494 kts | 193° |
| 2026-04-26 07:00 | 58.05596 | 24.02265 | 31741 ft | 493 kts | 193° |
| 2026-04-26 07:00 | 57.98872 | 23.99804 | 31756 ft | 492 kts | 193° |
| 2026-04-26 07:01 | 57.92134 | 23.97336 | 31756 ft | 492 kts | 193° |
| 2026-04-26 07:01 | 57.85416 | 23.94869 | 31741 ft | 492 kts | 194° |
| 2026-04-26 07:02 | 57.78690 | 23.92412 | 31744 ft | 492 kts | 193° |
| 2026-04-26 07:02 | 57.71958 | 23.89965 | 31752 ft | 493 kts | 193° |
| 2026-04-26 07:03 | 57.65267 | 23.87550 | 31752 ft | 493 kts | 193° |
| 2026-04-26 07:03 | 57.58529 | 23.85128 | 31727 ft | 493 kts | 194° |
| 2026-04-26 07:04 | 57.51781 | 23.82709 | 31732 ft | 494 kts | 194° |
| 2026-04-26 07:04 | 57.45025 | 23.80302 | 31742 ft | 495 kts | 194° |
| 2026-04-26 07:05 | 57.38248 | 23.77892 | 31759 ft | 495 kts | 194° |
| 2026-04-26 07:05 | 57.31484 | 23.75493 | 31736 ft | 495 kts | 194° |
| 2026-04-26 07:06 | 57.24707 | 23.73084 | 31733 ft | 496 kts | 194° |
| 2026-04-26 07:06 | 57.17924 | 23.70687 | 31747 ft | 497 kts | 194° |
| 2026-04-26 07:07 | 57.11182 | 23.68325 | 31755 ft | 497 kts | 194° |
| 2026-04-26 07:07 | 57.04388 | 23.65945 | 31739 ft | 497 kts | 194° |
| 2026-04-26 07:08 | 56.97586 | 23.63585 | 31753 ft | 498 kts | 194° |
| 2026-04-26 07:08 | 56.90779 | 23.61227 | 31753 ft | 498 kts | 194° |
| 2026-04-26 07:09 | 56.83969 | 23.58858 | 31760 ft | 498 kts | 194° |
| 2026-04-26 07:09 | 56.77153 | 23.56504 | 31728 ft | 499 kts | 194° |
| 2026-04-26 07:11 | 56.60107 | 23.50695 | 31767 ft | 500 kts | 194° |
| 2026-04-26 07:11 | 56.53257 | 23.48360 | 31765 ft | 501 kts | 194° |
| 2026-04-26 07:12 | 56.46408 | 23.46037 | 31771 ft | 501 kts | 194° |
| 2026-04-26 07:12 | 56.39558 | 23.43728 | 31788 ft | 501 kts | 194° |
| 2026-04-26 07:13 | 56.32687 | 23.41521 | 31785 ft | 502 kts | 192° |
| 2026-04-26 07:13 | 56.25767 | 23.39744 | 31792 ft | 502 kts | 191° |
| 2026-04-26 07:14 | 56.18816 | 23.38104 | 31781 ft | 503 kts | 191° |
| 2026-04-26 07:14 | 56.11883 | 23.36377 | 31809 ft | 504 kts | 191° |
| 2026-04-26 07:15 | 56.04945 | 23.34578 | 31851 ft | 503 kts | 191° |
| 2026-04-26 07:15 | 55.98062 | 23.32795 | 31864 ft | 502 kts | 191° |
| 2026-04-26 07:16 | 55.91144 | 23.31031 | 31878 ft | 503 kts | 191° |
| 2026-04-26 07:16 | 55.87672 | 23.30157 | 32098 ft | 503 kts | 191° |
| 2026-04-26 07:16 | 55.84208 | 23.29285 | 32342 ft | 503 kts | 191° |
| 2026-04-26 07:16 | 55.80750 | 23.28413 | 32596 ft | 502 kts | 191° |
| 2026-04-26 07:17 | 55.77288 | 23.27540 | 32795 ft | 502 kts | 191° |
| 2026-04-26 07:17 | 55.70371 | 23.25794 | 32829 ft | 501 kts | 191° |
| 2026-04-26 07:18 | 55.63450 | 23.24052 | 32824 ft | 504 kts | 192° |
| 2026-04-26 07:18 | 55.56508 | 23.22325 | 32830 ft | 504 kts | 192° |
| 2026-04-26 07:19 | 55.49560 | 23.20595 | 32828 ft | 504 kts | 192° |
| 2026-04-26 07:19 | 55.42606 | 23.18874 | 32786 ft | 504 kts | 192° |
| 2026-04-26 07:20 | 55.35643 | 23.17156 | 32811 ft | 506 kts | 192° |
| 2026-04-26 07:20 | 55.28650 | 23.15440 | 32800 ft | 508 kts | 192° |
| 2026-04-26 07:21 | 55.21648 | 23.13716 | 32822 ft | 508 kts | 192° |
| 2026-04-26 07:21 | 55.14674 | 23.12001 | 32837 ft | 509 kts | 192° |
| 2026-04-26 07:22 | 55.07668 | 23.10301 | 32865 ft | 508 kts | 192° |
| 2026-04-26 07:22 | 55.00673 | 23.08616 | 32877 ft | 507 kts | 192° |
| 2026-04-26 07:23 | 54.93683 | 23.06922 | 32871 ft | 507 kts | 192° |
| 2026-04-26 07:23 | 54.86698 | 23.05236 | 32832 ft | 507 kts | 192° |
| 2026-04-26 07:24 | 54.79685 | 23.03543 | 32841 ft | 508 kts | 193° |
| 2026-04-26 07:24 | 54.72669 | 23.01858 | 32863 ft | 509 kts | 192° |
| 2026-04-26 07:25 | 54.65689 | 23.00188 | 32873 ft | 510 kts | 192° |
| 2026-04-26 07:25 | 54.58646 | 22.98521 | 32829 ft | 511 kts | 193° |
| 2026-04-26 07:26 | 54.51591 | 22.96855 | 32846 ft | 512 kts | 193° |
| 2026-04-26 07:26 | 54.44513 | 22.95192 | 32859 ft | 514 kts | 193° |
| 2026-04-26 07:27 | 54.37424 | 22.93533 | 32881 ft | 514 kts | 193° |
| 2026-04-26 07:27 | 54.30362 | 22.91871 | 32873 ft | 517 kts | 193° |
| 2026-04-26 07:28 | 54.23181 | 22.90182 | 32912 ft | 517 kts | 193° |
| 2026-04-26 07:28 | 54.16112 | 22.88537 | 32920 ft | 515 kts | 193° |
| 2026-04-26 07:29 | 54.09016 | 22.86908 | 32877 ft | 515 kts | 193° |
| 2026-04-26 07:29 | 54.01914 | 22.85272 | 32888 ft | 515 kts | 193° |
| 2026-04-26 07:30 | 53.94803 | 22.83611 | 32893 ft | 516 kts | 193° |
| 2026-04-26 07:30 | 53.87686 | 22.81978 | 32899 ft | 516 kts | 193° |
| 2026-04-26 07:31 | 53.80560 | 22.80356 | 32902 ft | 517 kts | 193° |
| 2026-04-26 07:31 | 53.73433 | 22.78728 | 32916 ft | 516 kts | 193° |
| 2026-04-26 07:32 | 53.66311 | 22.77104 | 32925 ft | 516 kts | 193° |
| 2026-04-26 07:32 | 53.59222 | 22.75521 | 32880 ft | 516 kts | 193° |
| 2026-04-26 07:33 | 53.52092 | 22.73914 | 32874 ft | 517 kts | 194° |
| 2026-04-26 07:33 | 53.44935 | 22.72291 | 32898 ft | 519 kts | 193° |
| 2026-04-26 07:34 | 53.37776 | 22.70679 | 32965 ft | 519 kts | 193° |
| 2026-04-26 07:34 | 53.30629 | 22.69085 | 32914 ft | 518 kts | 193° |
| 2026-04-26 07:35 | 53.23482 | 22.67496 | 32919 ft | 518 kts | 193° |
| 2026-04-26 07:35 | 53.16376 | 22.65917 | 32932 ft | 518 kts | 193° |
| 2026-04-26 07:36 | 53.09234 | 22.64337 | 32938 ft | 518 kts | 193° |
| 2026-04-26 07:36 | 53.02070 | 22.62745 | 32932 ft | 522 kts | 194° |
| 2026-04-26 07:37 | 52.94862 | 22.61160 | 32948 ft | 523 kts | 194° |
| 2026-04-26 07:37 | 52.87649 | 22.59590 | 32949 ft | 523 kts | 194° |
| 2026-04-26 07:38 | 52.80433 | 22.58026 | 32907 ft | 523 kts | 194° |
| 2026-04-26 07:38 | 52.74386 | 22.56712 | 32926 ft | 524 kts | 194° |
| 2026-04-26 07:39 | 52.67200 | 22.55143 | 32947 ft | 524 kts | 194° |
| 2026-04-26 07:39 | 52.59962 | 22.53578 | 32953 ft | 525 kts | 194° |
| 2026-04-26 07:40 | 52.52696 | 22.52143 | 32995 ft | 527 kts | 193° |
| 2026-04-26 07:40 | 52.45416 | 22.50820 | 32997 ft | 526 kts | 192° |
| 2026-04-26 07:41 | 52.38147 | 22.49498 | 32991 ft | 524 kts | 193° |
| 2026-04-26 07:41 | 52.30912 | 22.48154 | 32924 ft | 523 kts | 194° |
| 2026-04-26 07:42 | 52.23679 | 22.46789 | 32941 ft | 523 kts | 194° |
| 2026-04-26 07:42 | 52.16439 | 22.45414 | 32959 ft | 524 kts | 194° |
| 2026-04-26 07:43 | 52.09189 | 22.44051 | 32970 ft | 524 kts | 193° |
| 2026-04-26 07:43 | 52.01922 | 22.42710 | 32999 ft | 528 kts | 194° |
| 2026-04-26 07:44 | 51.94618 | 22.41374 | 33013 ft | 528 kts | 194° |
| 2026-04-26 07:44 | 51.87353 | 22.40036 | 33014 ft | 528 kts | 194° |
| 2026-04-26 07:45 | 51.80064 | 22.38690 | 32980 ft | 527 kts | 194° |
| 2026-04-26 07:45 | 51.72773 | 22.37351 | 33027 ft | 526 kts | 194° |
| 2026-04-26 07:46 | 51.65509 | 22.36025 | 33041 ft | 524 kts | 194° |
| 2026-04-26 07:46 | 51.58265 | 22.34699 | 32972 ft | 524 kts | 195° |
| 2026-04-26 07:47 | 51.51008 | 22.33380 | 33015 ft | 525 kts | 195° |
| 2026-04-26 07:47 | 51.43748 | 22.32069 | 33023 ft | 525 kts | 195° |
| 2026-04-26 07:48 | 51.36491 | 22.30769 | 33033 ft | 525 kts | 194° |
| 2026-04-26 07:48 | 51.29247 | 22.29468 | 33033 ft | 524 kts | 195° |
| 2026-04-26 07:49 | 51.21988 | 22.28160 | 33029 ft | 524 kts | 195° |
| 2026-04-26 07:49 | 51.14736 | 22.26864 | 33035 ft | 524 kts | 195° |
| 2026-04-26 07:50 | 51.03867 | 22.24929 | 33045 ft | 524 kts | 195° |
| 2026-04-26 07:50 | 50.96614 | 22.23642 | 33068 ft | 523 kts | 195° |
| 2026-04-26 07:51 | 50.89418 | 22.22380 | 33025 ft | 519 kts | 195° |
| 2026-04-26 07:51 | 50.82237 | 22.21120 | 33049 ft | 520 kts | 195° |
| 2026-04-26 07:52 | 50.75057 | 22.19691 | 33406 ft | 518 kts | 197° |
| 2026-04-26 07:52 | 50.71492 | 22.18902 | 33688 ft | 516 kts | 197° |
| 2026-04-26 07:52 | 50.67941 | 22.18101 | 33951 ft | 516 kts | 197° |
| 2026-04-26 07:53 | 50.60833 | 22.16526 | 34002 ft | 514 kts | 197° |
| 2026-04-26 07:53 | 50.53741 | 22.15025 | 34045 ft | 514 kts | 197° |
| 2026-04-26 07:54 | 50.46652 | 22.13553 | 34049 ft | 513 kts | 197° |
| 2026-04-26 07:54 | 50.39625 | 22.12077 | 34053 ft | 513 kts | 197° |
| 2026-04-26 07:55 | 50.32550 | 22.10588 | 34060 ft | 513 kts | 197° |
| 2026-04-26 07:55 | 50.25482 | 22.09104 | 34074 ft | 512 kts | 197° |
| 2026-04-26 07:56 | 50.18425 | 22.07635 | 34077 ft | 511 kts | 197° |
| 2026-04-26 07:56 | 50.11378 | 22.06169 | 34057 ft | 510 kts | 197° |
| 2026-04-26 07:57 | 50.04359 | 22.04711 | 34080 ft | 508 kts | 197° |
| 2026-04-26 07:57 | 49.97353 | 22.03275 | 34079 ft | 507 kts | 197° |
| 2026-04-26 07:58 | 49.90364 | 22.01838 | 34017 ft | 505 kts | 197° |
| 2026-04-26 07:58 | 49.83402 | 22.00403 | 34046 ft | 504 kts | 197° |
| 2026-04-26 07:59 | 49.76439 | 21.98979 | 34057 ft | 504 kts | 197° |
| 2026-04-26 07:59 | 49.69531 | 21.97564 | 34056 ft | 504 kts | 197° |
| 2026-04-26 08:00 | 49.62610 | 21.96152 | 34048 ft | 501 kts | 197° |
| 2026-04-26 08:00 | 49.55691 | 21.94751 | 34061 ft | 500 kts | 197° |
| 2026-04-26 08:01 | 49.48798 | 21.93352 | 34061 ft | 500 kts | 197° |
| 2026-04-26 08:01 | 49.41901 | 21.91959 | 34033 ft | 499 kts | 196° |
| 2026-04-26 08:02 | 49.35021 | 21.90574 | 34065 ft | 498 kts | 197° |
| 2026-04-26 08:02 | 49.28150 | 21.89194 | 34053 ft | 497 kts | 197° |
| 2026-04-26 08:03 | 49.21290 | 21.87833 | 33998 ft | 496 kts | 196° |
| 2026-04-26 08:03 | 49.14438 | 21.86470 | 34037 ft | 495 kts | 196° |
| 2026-04-26 08:04 | 49.07604 | 21.85101 | 34039 ft | 495 kts | 196° |
| 2026-04-26 08:04 | 49.00778 | 21.83739 | 34042 ft | 494 kts | 196° |
| 2026-04-26 08:05 | 48.93964 | 21.82399 | 34042 ft | 494 kts | 196° |
| 2026-04-26 08:05 | 48.87037 | 21.82002 | 34036 ft | 507 kts | 180° |
| 2026-04-26 08:06 | 48.83525 | 21.82715 | 33811 ft | 509 kts | 179° |
| 2026-04-26 08:06 | 48.80014 | 21.83470 | 33528 ft | 510 kts | 179° |
| 2026-04-26 08:06 | 48.76502 | 21.84227 | 33216 ft | 510 kts | 178° |
| 2026-04-26 08:06 | 48.72981 | 21.84979 | 32974 ft | 511 kts | 178° |
| 2026-04-26 08:07 | 48.65981 | 21.86464 | 33011 ft | 512 kts | 178° |
| 2026-04-26 08:07 | 48.58923 | 21.87953 | 33007 ft | 512 kts | 178° |
| 2026-04-26 08:08 | 48.51861 | 21.89441 | 32976 ft | 512 kts | 178° |
| 2026-04-26 08:08 | 48.44797 | 21.90913 | 33014 ft | 511 kts | 178° |
| 2026-04-26 08:09 | 48.37750 | 21.92376 | 33017 ft | 512 kts | 178° |
| 2026-04-26 08:09 | 48.30699 | 21.94090 | 33018 ft | 515 kts | 175° |
| 2026-04-26 08:10 | 48.23684 | 21.96277 | 33017 ft | 515 kts | 173° |
| 2026-04-26 08:10 | 48.16668 | 21.98540 | 33022 ft | 515 kts | 173° |
| 2026-04-26 08:11 | 48.09658 | 22.00671 | 33024 ft | 514 kts | 174° |
| 2026-04-26 08:11 | 48.02639 | 22.02707 | 32995 ft | 513 kts | 174° |
| 2026-04-26 08:12 | 47.95627 | 22.04729 | 33020 ft | 512 kts | 174° |
| 2026-04-26 08:12 | 47.88643 | 22.06786 | 33022 ft | 512 kts | 174° |
| 2026-04-26 08:13 | 47.81663 | 22.08851 | 33029 ft | 511 kts | 174° |
| 2026-04-26 08:13 | 47.74682 | 22.10895 | 32999 ft | 511 kts | 174° |
| 2026-04-26 08:14 | 47.67712 | 22.12924 | 33005 ft | 510 kts | 174° |
| 2026-04-26 08:14 | 47.60743 | 22.14956 | 33002 ft | 510 kts | 174° |
| 2026-04-26 08:15 | 47.53780 | 22.16974 | 32990 ft | 509 kts | 173° |
| 2026-04-26 08:15 | 47.46873 | 22.18973 | 32998 ft | 509 kts | 173° |
| 2026-04-26 08:16 | 47.39919 | 22.20980 | 32993 ft | 508 kts | 173° |
| 2026-04-26 08:16 | 47.32988 | 22.22974 | 32998 ft | 507 kts | 173° |
| 2026-04-26 08:17 | 47.26076 | 22.24952 | 32983 ft | 505 kts | 173° |
| 2026-04-26 08:17 | 47.19169 | 22.26923 | 32991 ft | 505 kts | 173° |
| 2026-04-26 08:18 | 47.12281 | 22.28890 | 32986 ft | 504 kts | 173° |
| 2026-04-26 08:18 | 47.05402 | 22.30855 | 32985 ft | 502 kts | 172° |
| 2026-04-26 08:19 | 46.98560 | 22.32797 | 33004 ft | 500 kts | 172° |
| 2026-04-26 08:19 | 46.91743 | 22.34722 | 33003 ft | 498 kts | 172° |
| 2026-04-26 08:20 | 46.84988 | 22.36635 | 32964 ft | 497 kts | 172° |
| 2026-04-26 08:20 | 46.78208 | 22.38545 | 32992 ft | 495 kts | 172° |
| 2026-04-26 08:21 | 46.71459 | 22.40439 | 32998 ft | 493 kts | 172° |
| 2026-04-26 08:21 | 46.65866 | 22.42011 | 32999 ft | 492 kts | 172° |
| 2026-04-26 08:22 | 46.59152 | 22.43889 | 32994 ft | 490 kts | 172° |
| 2026-04-26 08:22 | 46.52460 | 22.45757 | 33002 ft | 488 kts | 172° |
| 2026-04-26 08:23 | 46.45798 | 22.47619 | 32997 ft | 487 kts | 172° |
| 2026-04-26 08:23 | 46.39173 | 22.49460 | 32976 ft | 486 kts | 171° |
| 2026-04-26 08:24 | 46.32531 | 22.51289 | 32987 ft | 485 kts | 171° |
| 2026-04-26 08:24 | 46.25904 | 22.53121 | 33003 ft | 485 kts | 171° |
| 2026-04-26 08:25 | 46.19281 | 22.54949 | 33006 ft | 484 kts | 171° |
| 2026-04-26 08:25 | 46.12676 | 22.56766 | 32989 ft | 483 kts | 171° |
| 2026-04-26 08:26 | 46.06082 | 22.58577 | 33004 ft | 482 kts | 171° |
| 2026-04-26 08:26 | 45.99507 | 22.60372 | 33004 ft | 481 kts | 171° |
| 2026-04-26 08:27 | 45.92938 | 22.62157 | 32991 ft | 480 kts | 171° |
| 2026-04-26 08:27 | 45.86383 | 22.63932 | 33011 ft | 479 kts | 171° |
| 2026-04-26 08:28 | 45.79834 | 22.65770 | 33004 ft | 479 kts | 170° |
| 2026-04-26 08:28 | 45.73322 | 22.67824 | 33012 ft | 479 kts | 169° |
| 2026-04-26 08:29 | 45.66810 | 22.69933 | 32985 ft | 479 kts | 169° |
| 2026-04-26 08:29 | 45.60329 | 22.71963 | 33002 ft | 480 kts | 169° |
| 2026-04-26 08:30 | 45.53802 | 22.73952 | 32997 ft | 480 kts | 169° |
| 2026-04-26 08:30 | 45.47266 | 22.75954 | 33002 ft | 481 kts | 169° |
| 2026-04-26 08:31 | 45.40725 | 22.77978 | 32975 ft | 482 kts | 169° |
| 2026-04-26 08:31 | 45.34157 | 22.80001 | 32970 ft | 483 kts | 169° |
| 2026-04-26 08:32 | 45.27591 | 22.82018 | 32983 ft | 482 kts | 169° |
| 2026-04-26 08:32 | 45.21036 | 22.84012 | 32990 ft | 481 kts | 169° |
| 2026-04-26 08:33 | 45.14492 | 22.86000 | 32989 ft | 480 kts | 169° |
| 2026-04-26 08:33 | 45.07964 | 22.87982 | 32995 ft | 479 kts | 169° |
| 2026-04-26 08:34 | 45.01464 | 22.89965 | 32990 ft | 477 kts | 169° |
| 2026-04-26 08:34 | 44.94989 | 22.91930 | 32986 ft | 476 kts | 169° |
| 2026-04-26 08:35 | 44.88519 | 22.93873 | 32992 ft | 475 kts | 169° |
| 2026-04-26 08:35 | 44.82056 | 22.95806 | 32995 ft | 474 kts | 169° |
| 2026-04-26 08:36 | 44.75599 | 22.97743 | 32997 ft | 474 kts | 169° |
| 2026-04-26 08:36 | 44.69196 | 22.99664 | 32992 ft | 473 kts | 169° |
| 2026-04-26 08:37 | 44.62752 | 23.01589 | 33003 ft | 473 kts | 169° |
| 2026-04-26 08:37 | 44.56313 | 23.03506 | 32999 ft | 473 kts | 169° |
| 2026-04-26 08:38 | 44.49871 | 23.05425 | 33000 ft | 473 kts | 169° |
| 2026-04-26 08:38 | 44.43435 | 23.07344 | 33001 ft | 473 kts | 169° |
| 2026-04-26 08:39 | 44.37004 | 23.09250 | 33023 ft | 472 kts | 170° |
| 2026-04-26 08:39 | 44.30593 | 23.11146 | 33027 ft | 470 kts | 170° |
| 2026-04-26 08:40 | 44.24195 | 23.13034 | 33025 ft | 469 kts | 170° |
| 2026-04-26 08:40 | 44.17807 | 23.14916 | 33021 ft | 469 kts | 170° |
| 2026-04-26 08:41 | 44.11420 | 23.16791 | 33013 ft | 469 kts | 171° |
| 2026-04-26 08:41 | 44.05033 | 23.18658 | 33032 ft | 469 kts | 172° |
| 2026-04-26 08:42 | 43.98658 | 23.20526 | 33022 ft | 468 kts | 171° |
| 2026-04-26 08:42 | 43.92301 | 23.22380 | 33015 ft | 467 kts | 173° |
| 2026-04-26 08:43 | 43.85946 | 23.24224 | 33041 ft | 466 kts | 173° |
| 2026-04-26 08:43 | 43.79638 | 23.26171 | 33183 ft | 469 kts | 170° |
| 2026-04-26 08:44 | 43.76473 | 23.27316 | 33449 ft | 470 kts | 169° |
| 2026-04-26 08:44 | 43.73325 | 23.28524 | 33701 ft | 470 kts | 169° |
| 2026-04-26 08:44 | 43.70171 | 23.29757 | 33960 ft | 470 kts | 169° |
| 2026-04-26 08:44 | 43.67021 | 23.30980 | 34203 ft | 470 kts | 169° |
| 2026-04-26 08:45 | 43.63875 | 23.32173 | 34430 ft | 469 kts | 170° |
| 2026-04-26 08:45 | 43.60714 | 23.33343 | 34641 ft | 469 kts | 170° |
| 2026-04-26 08:45 | 43.57563 | 23.34489 | 34855 ft | 469 kts | 170° |
| 2026-04-26 08:45 | 43.54404 | 23.35632 | 35005 ft | 469 kts | 170° |
| 2026-04-26 08:46 | 43.48077 | 23.37918 | 35034 ft | 470 kts | 170° |
| 2026-04-26 08:46 | 43.41756 | 23.40218 | 35034 ft | 470 kts | 170° |
| 2026-04-26 08:47 | 43.35481 | 23.42500 | 35040 ft | 469 kts | 170° |
| 2026-04-26 08:47 | 43.29140 | 23.44801 | 35042 ft | 469 kts | 170° |
| 2026-04-26 08:48 | 43.22861 | 23.47078 | 35047 ft | 470 kts | 170° |
| 2026-04-26 08:48 | 43.16537 | 23.49363 | 35053 ft | 470 kts | 170° |
| 2026-04-26 08:49 | 43.10201 | 23.51640 | 35070 ft | 471 kts | 170° |
| 2026-04-26 08:49 | 43.03866 | 23.53916 | 35061 ft | 471 kts | 169° |
| 2026-04-26 08:50 | 42.97529 | 23.56182 | 35064 ft | 471 kts | 169° |
| 2026-04-26 08:50 | 42.91193 | 23.58450 | 35073 ft | 471 kts | 170° |
| 2026-04-26 08:51 | 42.81688 | 23.61843 | 35070 ft | 471 kts | 169° |
| 2026-04-26 08:52 | 42.75349 | 23.64102 | 35073 ft | 470 kts | 169° |
| 2026-04-26 08:52 | 42.69020 | 23.66353 | 35074 ft | 470 kts | 169° |
| 2026-04-26 08:53 | 42.62727 | 23.68583 | 35074 ft | 470 kts | 169° |
| 2026-04-26 08:53 | 42.56399 | 23.70827 | 35068 ft | 471 kts | 168° |
| 2026-04-26 08:54 | 42.50106 | 23.73325 | 35078 ft | 472 kts | 166° |
| 2026-04-26 08:54 | 42.43839 | 23.76010 | 35058 ft | 472 kts | 166° |
| 2026-04-26 08:55 | 42.37564 | 23.78663 | 35059 ft | 472 kts | 166° |
| 2026-04-26 08:55 | 42.31276 | 23.81239 | 35060 ft | 472 kts | 167° |
| 2026-04-26 08:56 | 42.24976 | 23.83788 | 35058 ft | 472 kts | 167° |
| 2026-04-26 08:56 | 42.18688 | 23.86334 | 35069 ft | 472 kts | 167° |
| 2026-04-26 08:57 | 42.12396 | 23.88898 | 35052 ft | 472 kts | 167° |
| 2026-04-26 08:57 | 42.06101 | 23.91457 | 35060 ft | 472 kts | 167° |
| 2026-04-26 08:58 | 41.99808 | 23.94005 | 35051 ft | 472 kts | 166° |
| 2026-04-26 08:58 | 41.93516 | 23.96546 | 35059 ft | 472 kts | 166° |
| 2026-04-26 08:59 | 41.87219 | 23.99094 | 35060 ft | 473 kts | 166° |
| 2026-04-26 08:59 | 41.80956 | 24.01621 | 35048 ft | 473 kts | 166° |
| 2026-04-26 09:00 | 41.74646 | 24.04151 | 35051 ft | 473 kts | 166° |
| 2026-04-26 09:00 | 41.68341 | 24.06674 | 35052 ft | 473 kts | 166° |
| 2026-04-26 09:01 | 41.62036 | 24.09211 | 35039 ft | 473 kts | 166° |
| 2026-04-26 09:01 | 41.55723 | 24.11741 | 35045 ft | 473 kts | 166° |
| 2026-04-26 09:02 | 41.49484 | 24.14564 | 35046 ft | 474 kts | 161° |
| 2026-04-26 09:02 | 41.43357 | 24.17854 | 35047 ft | 475 kts | 160° |
| 2026-04-26 09:03 | 41.37242 | 24.21189 | 35038 ft | 474 kts | 160° |
| 2026-04-26 09:03 | 41.31105 | 24.24404 | 35042 ft | 474 kts | 161° |
| 2026-04-26 09:04 | 41.24950 | 24.27550 | 35046 ft | 474 kts | 161° |
| 2026-04-26 09:04 | 41.18791 | 24.30692 | 35048 ft | 474 kts | 161° |
| 2026-04-26 09:05 | 41.12643 | 24.33842 | 35043 ft | 474 kts | 160° |
| 2026-04-26 09:05 | 41.06496 | 24.36993 | 35047 ft | 474 kts | 160° |
| 2026-04-26 09:06 | 41.00347 | 24.40148 | 35048 ft | 474 kts | 160° |
| 2026-04-26 09:06 | 40.94197 | 24.43292 | 35045 ft | 474 kts | 160° |
| 2026-04-26 09:07 | 40.88042 | 24.46432 | 35044 ft | 474 kts | 160° |
| 2026-04-26 09:07 | 40.81919 | 24.49542 | 35047 ft | 474 kts | 160° |
| 2026-04-26 09:08 | 40.75766 | 24.52668 | 35056 ft | 474 kts | 160° |
| 2026-04-26 09:08 | 40.69602 | 24.55787 | 35059 ft | 474 kts | 160° |
| 2026-04-26 09:09 | 40.63442 | 24.58899 | 35059 ft | 474 kts | 160° |
| 2026-04-26 09:09 | 40.58321 | 24.61488 | 35059 ft | 474 kts | 160° |
| 2026-04-26 09:10 | 40.52172 | 24.64595 | 35064 ft | 474 kts | 160° |
| 2026-04-26 09:10 | 40.46007 | 24.67688 | 35063 ft | 474 kts | 159° |
| 2026-04-26 09:11 | 40.39853 | 24.70770 | 35066 ft | 474 kts | 159° |
| 2026-04-26 09:11 | 40.33696 | 24.73864 | 35067 ft | 474 kts | 159° |
| 2026-04-26 09:12 | 40.27536 | 24.76945 | 35065 ft | 474 kts | 159° |
| 2026-04-26 09:12 | 40.21378 | 24.80011 | 35066 ft | 474 kts | 159° |
| 2026-04-26 09:13 | 40.15214 | 24.83065 | 35064 ft | 474 kts | 159° |
| 2026-04-26 09:13 | 40.09054 | 24.86125 | 35068 ft | 474 kts | 159° |
| 2026-04-26 09:14 | 40.02890 | 24.89185 | 35061 ft | 474 kts | 159° |
| 2026-04-26 09:14 | 39.96721 | 24.92245 | 35062 ft | 474 kts | 159° |
| 2026-04-26 09:15 | 39.90564 | 24.95293 | 35058 ft | 474 kts | 159° |
| 2026-04-26 09:15 | 39.84398 | 24.98321 | 35058 ft | 474 kts | 159° |
| 2026-04-26 09:16 | 39.78253 | 25.01328 | 35066 ft | 474 kts | 158° |
| 2026-04-26 09:16 | 39.72093 | 25.04363 | 35064 ft | 474 kts | 158° |
| 2026-04-26 09:17 | 39.65917 | 25.07397 | 35065 ft | 474 kts | 158° |
| 2026-04-26 09:17 | 39.59749 | 25.10415 | 35067 ft | 474 kts | 158° |
| 2026-04-26 09:18 | 39.53682 | 25.13746 | 35072 ft | 473 kts | 153° |
| 2026-04-26 09:18 | 39.47771 | 25.17474 | 35066 ft | 473 kts | 152° |
| 2026-04-26 09:19 | 39.41864 | 25.21219 | 35069 ft | 473 kts | 153° |
| 2026-04-26 09:19 | 39.35916 | 25.24845 | 35069 ft | 473 kts | 154° |
| 2026-04-26 09:20 | 39.29948 | 25.28418 | 35070 ft | 473 kts | 153° |
| 2026-04-26 09:20 | 39.23978 | 25.31993 | 35068 ft | 472 kts | 153° |
| 2026-04-26 09:21 | 39.18018 | 25.35568 | 35072 ft | 472 kts | 153° |
| 2026-04-26 09:21 | 39.12061 | 25.39139 | 35069 ft | 472 kts | 153° |
| 2026-04-26 09:22 | 39.06107 | 25.42708 | 35066 ft | 471 kts | 153° |
| 2026-04-26 09:22 | 39.00203 | 25.46254 | 35065 ft | 471 kts | 153° |
| 2026-04-26 09:23 | 38.94261 | 25.49805 | 35070 ft | 471 kts | 153° |
| 2026-04-26 09:23 | 38.88313 | 25.53348 | 35065 ft | 471 kts | 153° |
| 2026-04-26 09:24 | 38.82368 | 25.56885 | 35062 ft | 471 kts | 153° |
| 2026-04-26 09:24 | 38.76423 | 25.60415 | 35062 ft | 471 kts | 153° |
| 2026-04-26 09:25 | 38.70477 | 25.63927 | 35062 ft | 471 kts | 153° |
| 2026-04-26 09:25 | 38.64528 | 25.67438 | 35069 ft | 470 kts | 152° |
| 2026-04-26 09:26 | 38.58590 | 25.70942 | 35065 ft | 470 kts | 152° |
| 2026-04-26 09:26 | 38.52656 | 25.74444 | 35063 ft | 470 kts | 152° |
| 2026-04-26 09:27 | 38.46721 | 25.77936 | 35054 ft | 470 kts | 152° |
| 2026-04-26 09:27 | 38.40786 | 25.81426 | 35047 ft | 470 kts | 152° |
| 2026-04-26 09:28 | 38.34886 | 25.84889 | 35047 ft | 470 kts | 152° |
| 2026-04-26 09:28 | 38.28943 | 25.88368 | 35039 ft | 470 kts | 152° |
| 2026-04-26 09:29 | 38.22970 | 25.91754 | 35031 ft | 471 kts | 155° |
| 2026-04-26 09:29 | 38.16812 | 25.94634 | 35034 ft | 472 kts | 158° |
| 2026-04-26 09:30 | 38.10575 | 25.97273 | 35051 ft | 472 kts | 158° |
| 2026-04-26 09:30 | 38.04366 | 26.00001 | 35038 ft | 472 kts | 157° |
| 2026-04-26 09:31 | 37.98193 | 26.02826 | 35036 ft | 472 kts | 157° |
| 2026-04-26 09:31 | 37.92015 | 26.05668 | 35039 ft | 472 kts | 157° |
| 2026-04-26 09:32 | 37.85835 | 26.08468 | 35039 ft | 472 kts | 157° |
| 2026-04-26 09:32 | 37.79642 | 26.11255 | 35035 ft | 472 kts | 157° |
| 2026-04-26 09:33 | 37.73456 | 26.14031 | 35028 ft | 472 kts | 157° |
| 2026-04-26 09:33 | 37.67267 | 26.16816 | 35023 ft | 472 kts | 157° |
| 2026-04-26 09:34 | 37.61081 | 26.19606 | 35021 ft | 472 kts | 157° |
| 2026-04-26 09:34 | 37.54927 | 26.22373 | 35029 ft | 472 kts | 157° |
| 2026-04-26 09:35 | 37.48731 | 26.25143 | 35021 ft | 472 kts | 157° |
| 2026-04-26 09:35 | 37.42531 | 26.27914 | 35032 ft | 473 kts | 157° |
| 2026-04-26 09:36 | 37.36334 | 26.30682 | 35034 ft | 473 kts | 157° |
| 2026-04-26 09:36 | 37.30124 | 26.33445 | 35023 ft | 473 kts | 157° |
| 2026-04-26 09:37 | 37.23918 | 26.36196 | 35023 ft | 473 kts | 157° |
| 2026-04-26 09:37 | 37.17718 | 26.38945 | 35024 ft | 473 kts | 157° |
| 2026-04-26 09:38 | 37.11508 | 26.41700 | 35016 ft | 473 kts | 157° |
| 2026-04-26 09:38 | 37.05301 | 26.44453 | 35013 ft | 473 kts | 157° |
| 2026-04-26 09:39 | 36.99099 | 26.47204 | 35007 ft | 473 kts | 157° |
| 2026-04-26 09:39 | 36.93102 | 26.50469 | 35012 ft | 467 kts | 144° |
| 2026-04-26 09:40 | 36.88318 | 26.55762 | 35005 ft | 456 kts | 124° |
| 2026-04-26 09:40 | 36.85203 | 26.62547 | 35013 ft | 449 kts | 109° |
| 2026-04-26 09:41 | 36.82753 | 26.69688 | 34641 ft | 452 kts | 110° |
| 2026-04-26 09:41 | 36.81484 | 26.73371 | 33628 ft | 457 kts | 109° |
| 2026-04-26 09:41 | 36.80235 | 26.76990 | 32850 ft | 451 kts | 109° |
| 2026-04-26 09:41 | 36.79016 | 26.80511 | 32127 ft | 445 kts | 109° |
| 2026-04-26 09:42 | 36.77805 | 26.84001 | 31703 ft | 432 kts | 109° |
| 2026-04-26 09:42 | 36.76626 | 26.87400 | 31211 ft | 422 kts | 109° |
| 2026-04-26 09:42 | 36.75477 | 26.90714 | 30706 ft | 412 kts | 109° |
| 2026-04-26 09:42 | 36.74352 | 26.93959 | 30233 ft | 403 kts | 109° |
| 2026-04-26 09:43 | 36.73245 | 26.97160 | 29704 ft | 401 kts | 109° |
| 2026-04-26 09:43 | 36.72147 | 27.00336 | 29227 ft | 397 kts | 109° |
| 2026-04-26 09:43 | 36.71050 | 27.03504 | 28786 ft | 402 kts | 109° |
| 2026-04-26 09:43 | 36.69938 | 27.06721 | 28359 ft | 405 kts | 109° |
| 2026-04-26 09:44 | 36.68820 | 27.09936 | 27918 ft | 403 kts | 109° |
| 2026-04-26 09:44 | 36.67707 | 27.13133 | 27492 ft | 401 kts | 109° |
| 2026-04-26 09:44 | 36.66598 | 27.16308 | 27062 ft | 398 kts | 110° |
| 2026-04-26 09:44 | 36.65496 | 27.19460 | 26357 ft | 397 kts | 110° |
| 2026-04-26 09:45 | 36.64402 | 27.22576 | 25932 ft | 388 kts | 110° |
| 2026-04-26 09:45 | 36.63331 | 27.25623 | 25483 ft | 381 kts | 110° |
| 2026-04-26 09:45 | 36.62276 | 27.28626 | 25049 ft | 376 kts | 110° |
| 2026-04-26 09:45 | 36.61239 | 27.31586 | 24617 ft | 370 kts | 110° |
| 2026-04-26 09:46 | 36.60212 | 27.34509 | 24204 ft | 367 kts | 111° |
| 2026-04-26 09:46 | 36.59191 | 27.37414 | 23789 ft | 365 kts | 111° |
| 2026-04-26 09:46 | 36.58176 | 27.40301 | 23351 ft | 364 kts | 111° |
| 2026-04-26 09:46 | 36.57165 | 27.43173 | 22919 ft | 360 kts | 111° |
| 2026-04-26 09:47 | 36.56165 | 27.46012 | 22519 ft | 356 kts | 111° |
| 2026-04-26 09:47 | 36.55185 | 27.48783 | 22124 ft | 352 kts | 111° |
| 2026-04-26 09:47 | 36.54199 | 27.51566 | 21704 ft | 349 kts | 111° |
| 2026-04-26 09:47 | 36.53225 | 27.54312 | 21304 ft | 345 kts | 111° |
| 2026-04-26 09:48 | 36.52261 | 27.57030 | 20888 ft | 342 kts | 111° |
| 2026-04-26 09:48 | 36.51304 | 27.59728 | 20480 ft | 339 kts | 111° |
| 2026-04-26 09:48 | 36.50359 | 27.62400 | 20051 ft | 337 kts | 111° |
| 2026-04-26 09:48 | 36.49419 | 27.65047 | 19635 ft | 334 kts | 111° |
| 2026-04-26 09:49 | 36.48479 | 27.67688 | 19208 ft | 332 kts | 111° |
| 2026-04-26 09:49 | 36.47549 | 27.70305 | 18789 ft | 330 kts | 111° |
| 2026-04-26 09:49 | 36.46691 | 27.72933 | 18355 ft | 327 kts | 105° |
| 2026-04-26 09:49 | 36.46205 | 27.75670 | 17895 ft | 323 kts | 98° |
| 2026-04-26 09:50 | 36.45848 | 27.78417 | 17465 ft | 320 kts | 98° |
| 2026-04-26 09:50 | 36.45486 | 27.81143 | 17041 ft | 318 kts | 98° |
| 2026-04-26 09:50 | 36.45122 | 27.83838 | 16629 ft | 315 kts | 98° |
| 2026-04-26 09:50 | 36.44760 | 27.86506 | 16211 ft | 313 kts | 98° |
| 2026-04-26 09:51 | 36.44397 | 27.89160 | 15786 ft | 311 kts | 100° |
| 2026-04-26 09:51 | 36.43782 | 27.91692 | 15386 ft | 310 kts | 112° |
| 2026-04-26 09:51 | 36.42729 | 27.94062 | 14963 ft | 311 kts | 123° |
| 2026-04-26 09:51 | 36.41419 | 27.96191 | 14548 ft | 310 kts | 126° |
| 2026-04-26 09:52 | 36.40099 | 27.98314 | 14123 ft | 310 kts | 126° |
| 2026-04-26 09:52 | 36.37481 | 28.02546 | 13245 ft | 308 kts | 126° |
| 2026-04-26 09:52 | 36.36180 | 28.04646 | 12816 ft | 306 kts | 126° |
| 2026-04-26 09:53 | 36.35323 | 28.06030 | 12536 ft | 305 kts | 126° |
| 2026-04-26 09:53 | 36.34035 | 28.08111 | 12126 ft | 303 kts | 126° |
| 2026-04-26 09:53 | 36.32775 | 28.10200 | 11650 ft | 303 kts | 124° |
| 2026-04-26 09:53 | 36.31541 | 28.12325 | 11163 ft | 304 kts | 124° |
| 2026-04-26 09:54 | 36.30317 | 28.14462 | 10690 ft | 305 kts | 123° |
| 2026-04-26 09:54 | 36.29088 | 28.16611 | 10240 ft | 303 kts | 123° |
| 2026-04-26 09:54 | 36.27915 | 28.18646 | 9963 ft | 281 kts | 123° |
| 2026-04-26 09:54 | 36.26796 | 28.20578 | 9528 ft | 268 kts | 123° |
| 2026-04-26 09:55 | 36.25710 | 28.22455 | 9421 ft | 271 kts | 123° |
| 2026-04-26 09:55 | 36.24667 | 28.24399 | 9251 ft | 271 kts | 114° |
| 2026-04-26 09:55 | 36.24227 | 28.26646 | 8764 ft | 271 kts | 89° |
| 2026-04-26 09:55 | 36.24623 | 28.28896 | 8335 ft | 271 kts | 65° |
| 2026-04-26 09:56 | 36.25774 | 28.30735 | 8023 ft | 272 kts | 41° |
| 2026-04-26 09:56 | 36.27451 | 28.31814 | 7630 ft | 277 kts | 16° |
| 2026-04-26 09:56 | 36.29380 | 28.31978 | 7129 ft | 278 kts | 2° |
| 2026-04-26 09:56 | 36.31320 | 28.31921 | 6491 ft | 280 kts | 1° |
| 2026-04-26 09:57 | 36.33251 | 28.31850 | 6124 ft | 273 kts | 1° |
| 2026-04-26 09:57 | 36.35141 | 28.31779 | 5385 ft | 272 kts | 1° |
| 2026-04-26 09:57 | 36.37024 | 28.31715 | 4694 ft | 269 kts | 1° |
| 2026-04-26 09:57 | 36.38878 | 28.31652 | 4118 ft | 262 kts | 359° |
| 2026-04-26 09:58 | 36.40624 | 28.31238 | 3761 ft | 248 kts | 340° |
| 2026-04-26 09:58 | 36.42097 | 28.30269 | 3750 ft | 233 kts | 325° |
| 2026-04-26 09:58 | 36.43232 | 28.28954 | 3662 ft | 211 kts | 310° |
| 2026-04-26 09:58 | 36.43988 | 28.27522 | 3473 ft | 191 kts | 297° |
| 2026-04-26 09:59 | 36.44464 | 28.25978 | 2993 ft | 190 kts | 285° |
| 2026-04-26 09:59 | 36.44654 | 28.24426 | 2526 ft | 177 kts | 272° |
| 2026-04-26 09:59 | 36.44591 | 28.22954 | 2139 ft | 164 kts | 260° |
| 2026-04-26 09:59 | 36.44329 | 28.21615 | 1885 ft | 156 kts | 250° |
| 2026-04-26 10:00 | 36.43963 | 28.20363 | 1667 ft | 153 kts | 249° |
| 2026-04-26 10:00 | 36.43605 | 28.19130 | 1462 ft | 151 kts | 249° |
| 2026-04-26 10:00 | 36.43250 | 28.17911 | 1267 ft | 150 kts | 249° |
| 2026-04-26 10:00 | 36.42896 | 28.16698 | 1058 ft | 149 kts | 250° |
| 2026-04-26 10:01 | 36.42546 | 28.15500 | 882 ft | 146 kts | 250° |
| 2026-04-26 10:01 | 36.42199 | 28.14311 | 704 ft | 146 kts | 250° |
| 2026-04-26 10:01 | 36.41853 | 28.13128 | 518 ft | 146 kts | 250° |
| 2026-04-26 10:01 | 36.41511 | 28.11954 | 355 ft | 147 kts | 250° |
| 2026-04-26 10:02 | 36.41161 | 28.10765 | 153 ft | 146 kts | 250° |
| 2026-04-26 10:02 | 36.40823 | 28.09594 | 35 ft | 135 kts | 249° |
| 2026-04-26 10:02 | 36.40547 | 28.08654 | 28 ft | 87 kts | 249° |
| 2026-04-26 10:02 | 36.40406 | 28.08177 | 27 ft | 36 kts | 249° |
| 2026-04-26 10:03 | 36.40274 | 28.07951 | 28 ft | 26 kts | 221° |
| 2026-04-26 10:03 | 36.40201 | 28.07874 | 28 ft | 7 kts | 219° |
| 2026-04-26 10:03 | 36.40189 | 28.07863 | 28 ft | 0 kts | 217° |
| 2026-04-26 10:03 | 36.40183 | 28.07858 | 28 ft | 2 kts | 217° |
| 2026-04-26 10:04 | 36.40179 | 28.07855 | 28 ft | 0 kts | 213° |
| 2026-04-26 10:04 | 36.40176 | 28.07853 | 28 ft | 1 kts | 209° |
| 2026-04-26 10:04 | 36.40156 | 28.07869 | 28 ft | 7 kts | 132° |
| 2026-04-26 10:04 | 36.40159 | 28.07918 | 28 ft | 6 kts | 63° |
| 2026-04-26 10:05 | 36.40175 | 28.07986 | 28 ft | 11 kts | 74° |
| 2026-04-26 10:05 | 36.40198 | 28.08077 | 28 ft | 11 kts | 72° |
| 2026-04-26 10:05 | 36.40225 | 28.08172 | 28 ft | 12 kts | 70° |
| 2026-04-26 10:05 | 36.40255 | 28.08275 | 28 ft | 14 kts | 70° |
| 2026-04-26 10:06 | 36.40294 | 28.08406 | 28 ft | 17 kts | 70° |
| 2026-04-26 10:06 | 36.40335 | 28.08548 | 28 ft | 18 kts | 70° |
| 2026-04-26 10:06 | 36.40378 | 28.08697 | 28 ft | 19 kts | 70° |
| 2026-04-26 10:06 | 36.40401 | 28.08840 | 28 ft | 17 kts | 90° |
| 2026-04-26 10:07 | 36.40397 | 28.08965 | 28 ft | 15 kts | 86° |
| 2026-04-26 10:07 | 36.40425 | 28.09090 | 28 ft | 15 kts | 70° |
| 2026-04-26 10:07 | 36.40454 | 28.09189 | 28 ft | 10 kts | 69° |
| 2026-04-26 10:07 | 36.40460 | 28.09259 | 28 ft | 7 kts | 129° |
| 2026-04-26 10:08 | 36.40430 | 28.09281 | 28 ft | 1 kts | 156° |
| 2026-04-26 10:08 | 36.40421 | 28.09286 | 28 ft | 2 kts | 158° |
| 2026-04-26 10:08 | 36.40412 | 28.09290 | 28 ft | 0 kts | 159° |
| 2026-04-26 10:13 | 36.40411 | 28.09290 | 28 ft | 0 kts | 159° |